Time;durP1;ratioP1;P1;durP2;ratioP2;P2;SDS_P1;SDS_P2;PMS_P1;PMS_P2;Temp;Humidity;BMP_temperature;BMP_pressure;BME280_temperature;BME280_humidity;BME280_pressure;Samples;Min_cycle;Max_cycle;Signal;HPM_P1;HPM_P2
2023/07/14 00:01:23;;;;;;;1999.90;999.90;;;14.00;99.90;;;;;;5045019;28;20045;-69
2023/07/14 00:03:49;;;;;;;1999.90;999.90;;;14.00;99.90;;;;;;5047784;28;20067;-69
2023/07/14 00:06:16;;;;;;;1999.90;999.90;;;14.00;99.90;;;;;;5048227;28;20119;-69
2023/07/14 00:08:43;;;;;;;1999.90;999.90;;;13.90;99.90;;;;;;5043335;28;20038;-69
2023/07/14 00:11:13;;;;;;;1999.90;999.90;;;13.90;99.90;;;;;;5048000;28;20087;-69
2023/07/14 00:13:39;;;;;;;1999.90;999.90;;;13.90;99.90;;;;;;5047861;28;20045;-69
2023/07/14 00:16:14;;;;;;;1999.90;999.90;;;13.90;99.90;;;;;;5050071;28;20055;-69
2023/07/14 00:18:40;;;;;;;1999.90;999.90;;;13.90;99.90;;;;;;5045349;28;20043;-69
2023/07/14 00:21:13;;;;;;;1999.90;999.90;;;13.90;99.90;;;;;;5035519;28;20086;-69
2023/07/14 00:23:38;;;;;;;1999.90;999.90;;;13.90;99.90;;;;;;5046372;28;20045;-69
2023/07/14 00:26:10;;;;;;;1999.90;999.90;;;13.90;99.90;;;;;;5032237;28;20045;-69
2023/07/14 00:28:37;;;;;;;1999.90;999.90;;;13.80;99.90;;;;;;5048900;28;20463;-69
2023/07/14 00:31:04;;;;;;;1999.90;999.90;;;13.80;99.90;;;;;;5027459;28;20037;-69
2023/07/14 00:33:30;;;;;;;1999.90;999.90;;;13.80;99.90;;;;;;5049427;28;20084;-69
2023/07/14 00:35:56;;;;;;;1999.90;999.90;;;13.80;99.90;;;;;;5043822;28;20067;-69
2023/07/14 00:38:21;;;;;;;1999.90;999.90;;;13.80;99.90;;;;;;5039147;28;20044;-69
2023/07/14 00:40:48;;;;;;;1999.90;999.90;;;13.80;99.90;;;;;;5047473;28;20094;-69
2023/07/14 00:43:19;;;;;;;1999.90;999.90;;;13.80;99.90;;;;;;5022100;28;20132;-69
2023/07/14 00:45:50;;;;;;;1999.90;999.90;;;13.80;99.90;;;;;;5040061;28;20103;-69
2023/07/14 00:48:19;;;;;;;1999.90;999.90;;;13.80;99.90;;;;;;5042316;28;20068;-69
2023/07/14 00:50:48;;;;;;;1999.90;999.90;;;13.80;99.90;;;;;;5049918;28;20043;-69
2023/07/14 00:53:33;;;;;;;1999.90;999.90;;;13.80;99.90;;;;;;5048013;28;20044;-69
2023/07/14 00:56:08;;;;;;;1999.90;999.90;;;13.70;99.90;;;;;;5047350;28;20501;-69
2023/07/14 00:58:34;;;;;;;1999.90;999.90;;;13.70;99.90;;;;;;5048720;28;20079;-69
2023/07/14 01:01:03;;;;;;;1999.90;999.90;;;13.70;99.90;;;;;;5035680;28;20175;-69
2023/07/14 01:03:30;;;;;;;1999.90;999.90;;;13.70;99.90;;;;;;5048588;28;20153;-69
2023/07/14 01:05:58;;;;;;;1999.90;999.90;;;13.70;99.90;;;;;;5035414;28;20056;-69
2023/07/14 01:08:23;;;;;;;1999.90;999.90;;;13.70;99.90;;;;;;5049160;28;20049;-69
2023/07/14 01:10:49;;;;;;;1999.90;999.90;;;13.70;99.90;;;;;;5043635;28;20066;-69
2023/07/14 01:13:17;;;;;;;1999.90;999.90;;;13.60;99.90;;;;;;5049182;28;20040;-69
2023/07/14 01:15:43;;;;;;;1999.90;999.90;;;13.60;99.90;;;;;;5036100;28;20091;-69
2023/07/14 01:18:11;;;;;;;1999.90;999.90;;;13.60;99.90;;;;;;5048233;28;20037;-69
2023/07/14 01:20:38;;;;;;;1999.90;999.90;;;13.60;99.90;;;;;;5031853;28;20393;-69
2023/07/14 01:23:03;;;;;;;1999.90;999.90;;;13.50;99.90;;;;;;5025666;28;20045;-69
2023/07/14 01:26:14;;;;;;;1999.90;999.90;;;13.50;99.90;;;;;;5037582;28;20044;-69
2023/07/14 01:28:41;;;;;;;1999.90;999.90;;;13.60;99.90;;;;;;5017228;28;20508;-69
2023/07/14 01:31:11;;;;;;;1999.90;999.90;;;13.50;99.90;;;;;;5042326;28;20059;-70
2023/07/14 01:33:37;;;;;;;1999.90;999.90;;;13.50;99.90;;;;;;5040073;28;20519;-69
2023/07/14 01:36:04;;;;;;;1999.90;999.90;;;13.50;99.90;;;;;;5034439;28;20490;-69
2023/07/14 01:38:30;;;;;;;1999.90;999.90;;;13.50;99.90;;;;;;5028903;28;20132;-69
2023/07/14 01:40:56;;;;;;;1999.90;999.90;;;13.50;99.90;;;;;;5018283;28;20041;-69
2023/07/14 01:43:22;;;;;;;1999.90;999.90;;;13.50;99.90;;;;;;5028098;28;20045;-69
2023/07/14 01:45:59;;;;;;;1999.90;999.90;;;13.40;99.90;;;;;;5047919;28;20491;-69
2023/07/14 01:48:29;;;;;;;1999.90;999.90;;;13.40;99.90;;;;;;5043507;28;20561;-69
2023/07/14 01:51:04;;;;;;;1999.90;999.90;;;13.40;99.90;;;;;;5045898;28;20040;-70
2023/07/14 01:53:36;;;;;;;1999.90;999.90;;;13.40;99.90;;;;;;5045062;28;20115;-69
2023/07/14 01:56:05;;;;;;;1999.90;999.90;;;13.40;99.90;;;;;;5043162;28;20102;-69
2023/07/14 01:58:35;;;;;;;1999.90;999.90;;;13.40;99.90;;;;;;5039633;28;20051;-69
2023/07/14 02:01:02;;;;;;;1999.90;999.90;;;13.40;99.90;;;;;;5044246;28;20155;-69
2023/07/14 02:03:35;;;;;;;1999.90;999.90;;;13.30;99.90;;;;;;5039801;28;20143;-69
2023/07/14 02:06:01;;;;;;;1999.90;999.90;;;13.40;99.90;;;;;;5025193;28;20049;-69
2023/07/14 02:08:27;;;;;;;1999.90;999.90;;;13.30;99.90;;;;;;5042392;28;20052;-69
2023/07/14 02:10:53;;;;;;;1999.90;999.90;;;13.40;99.90;;;;;;5026090;28;20063;-69
2023/07/14 02:13:21;;;;;;;1999.90;999.90;;;13.40;99.90;;;;;;5047839;28;20037;-69
2023/07/14 02:15:48;;;;;;;1999.90;999.90;;;13.40;99.90;;;;;;5030125;28;20095;-69
2023/07/14 02:18:18;;;;;;;1999.90;999.90;;;13.50;99.90;;;;;;5033926;28;20095;-69
2023/07/14 02:20:47;;;;;;;1999.90;999.90;;;13.50;99.90;;;;;;5037229;28;20188;-69
2023/07/14 02:23:19;;;;;;;1999.90;999.90;;;13.50;99.90;;;;;;5046995;28;20088;-69
2023/07/14 02:25:47;;;;;;;1999.90;999.90;;;13.60;99.90;;;;;;5045315;28;20047;-69
2023/07/14 02:28:14;;;;;;;1999.90;999.90;;;13.60;99.90;;;;;;5047328;28;20037;-69
2023/07/14 02:30:45;;;;;;;1999.90;999.90;;;13.60;99.90;;;;;;5043347;28;20567;-69
2023/07/14 02:33:22;;;;;;;1999.90;999.90;;;13.70;99.90;;;;;;5048024;28;20052;-69
2023/07/14 02:35:58;;;;;;;1999.90;999.90;;;13.70;99.90;;;;;;5034831;28;20520;-69
2023/07/14 02:38:24;;;;;;;1999.90;999.90;;;13.70;99.90;;;;;;5036203;28;20048;-69
2023/07/14 02:40:56;;;;;;;1999.90;999.90;;;13.80;99.90;;;;;;5045684;28;20666;-69
2023/07/14 02:43:23;;;;;;;1999.90;999.90;;;13.80;99.90;;;;;;5046264;28;20070;-69
2023/07/14 02:45:59;;;;;;;1999.90;999.90;;;13.80;99.90;;;;;;5045975;28;20083;-69
2023/07/14 02:48:48;;;;;;;1999.90;999.90;;;13.80;99.90;;;;;;5051911;28;20042;-69
2023/07/14 02:51:14;;;;;;;1999.90;999.90;;;13.80;99.90;;;;;;5045683;28;20053;-69
2023/07/14 02:53:39;;;;;;;1999.90;999.90;;;13.70;99.90;;;;;;5040681;28;20044;-69
2023/07/14 02:56:06;;;;;;;1999.90;999.90;;;13.70;99.90;;;;;;5040568;28;20037;-69
2023/07/14 02:58:33;;;;;;;1999.90;999.90;;;13.70;99.90;;;;;;5045743;28;20406;-69
2023/07/14 03:00:59;;;;;;;1999.90;999.90;;;13.70;99.90;;;;;;5029347;28;20045;-69
2023/07/14 03:03:27;;;;;;;1999.90;999.90;;;13.70;99.90;;;;;;5049282;28;20060;-69
2023/07/14 03:05:53;;;;;;;1999.90;999.90;;;13.60;99.90;;;;;;5043671;28;20126;-69
2023/07/14 03:08:20;;;;;;;1999.90;999.90;;;13.60;99.90;;;;;;5039832;28;20052;-69
2023/07/14 03:10:56;;;;;;;1999.90;999.90;;;13.60;99.90;;;;;;5045453;28;20108;-69
2023/07/14 03:13:22;;;;;;;1999.90;999.90;;;13.60;99.90;;;;;;5038607;28;20036;-69
2023/07/14 03:15:47;;;;;;;1999.90;999.90;;;13.60;99.90;;;;;;5039921;28;20090;-69
2023/07/14 03:18:14;;;;;;;1999.90;999.90;;;13.60;99.90;;;;;;5040028;28;20132;-69
2023/07/14 03:20:41;;;;;;;1999.90;999.90;;;13.60;99.90;;;;;;5039746;28;20044;-69
2023/07/14 03:23:06;;;;;;;1999.90;999.90;;;13.50;99.90;;;;;;5028450;28;20041;-69
2023/07/14 03:25:35;;;;;;;1999.90;999.90;;;13.50;99.90;;;;;;5046082;28;20048;-69
2023/07/14 03:28:02;;;;;;;1999.90;999.90;;;13.50;99.90;;;;;;5041921;28;20485;-69
2023/07/14 03:30:29;;;;;;;1999.90;999.90;;;13.50;99.90;;;;;;5027950;28;20040;-69
2023/07/14 03:32:54;;;;;;;1999.90;999.90;;;13.40;99.90;;;;;;5043991;28;20161;-69
2023/07/14 03:35:20;;;;;;;1999.90;999.90;;;13.40;99.90;;;;;;5043867;28;20869;-69
2023/07/14 03:37:46;;;;;;;1999.90;999.90;;;13.40;99.90;;;;;;5025682;28;20041;-69
2023/07/14 03:40:12;;;;;;;1999.90;999.90;;;13.40;99.90;;;;;;5045891;28;20079;-69
2023/07/14 03:42:39;;;;;;;1999.90;999.90;;;13.30;99.90;;;;;;5030375;28;20045;-69
2023/07/14 03:45:06;;;;;;;1999.90;999.90;;;13.30;99.90;;;;;;5022229;28;20048;-69
2023/07/14 03:47:32;;;;;;;1999.90;999.90;;;13.20;99.90;;;;;;5038917;28;20048;-69
2023/07/14 03:49:57;;;;;;;1999.90;999.90;;;13.20;99.90;;;;;;5045597;28;20160;-69
2023/07/14 03:52:23;;;;;;;1999.90;999.90;;;13.20;99.90;;;;;;5044998;28;20203;-69
2023/07/14 03:54:49;;;;;;;1999.90;999.90;;;13.10;99.90;;;;;;5041613;28;20509;-69
2023/07/14 03:57:14;;;;;;;1999.90;999.90;;;13.10;99.90;;;;;;5040408;28;20051;-69
2023/07/14 03:59:40;;;;;;;1999.90;999.90;;;13.10;99.90;;;;;;5023298;28;20479;-69
2023/07/14 04:02:06;;;;;;;1999.90;999.90;;;13.20;99.90;;;;;;5042797;28;20044;-69
2023/07/14 04:04:31;;;;;;;1999.90;999.90;;;13.20;99.90;;;;;;5038373;28;20052;-70
2023/07/14 04:06:57;;;;;;;1999.90;999.90;;;13.20;99.90;;;;;;5045531;28;20052;-69
2023/07/14 04:09:23;;;;;;;1999.90;999.90;;;13.20;99.90;;;;;;5045549;28;20485;-69
2023/07/14 04:11:49;;;;;;;1999.90;999.90;;;13.20;99.90;;;;;;5045372;28;20424;-69
2023/07/14 04:14:15;;;;;;;1999.90;999.90;;;13.30;99.90;;;;;;5039480;28;20207;-69
2023/07/14 04:16:41;;;;;;;1999.90;999.90;;;13.30;99.90;;;;;;5024885;28;20047;-69
2023/07/14 04:19:07;;;;;;;1999.90;999.90;;;13.30;99.90;;;;;;5045488;28;20390;-69
2023/07/14 04:21:33;;;;;;;1999.90;999.90;;;13.30;99.90;;;;;;5046004;28;20051;-69
2023/07/14 04:23:58;;;;;;;1999.90;999.90;;;13.40;99.90;;;;;;5025620;28;20049;-69
2023/07/14 04:26:26;;;;;;;1999.90;999.90;;;13.40;99.90;;;;;;5045475;28;20056;-69
2023/07/14 04:28:52;;;;;;;1999.90;999.90;;;13.40;99.90;;;;;;5043513;28;20457;-69
2023/07/14 04:31:17;;;;;;;1999.90;999.90;;;13.40;99.90;;;;;;5062878;28;20588;-69
2023/07/14 04:33:48;;;;;;;1999.90;999.90;;;13.50;99.90;;;;;;5027864;28;20348;-69
2023/07/14 04:36:15;;;;;;;1999.90;999.90;;;13.50;99.90;;;;;;5044426;28;20052;-69
2023/07/14 04:38:42;;;;;;;1999.90;999.90;;;13.50;99.90;;;;;;5036537;28;20053;-69
2023/07/14 04:41:11;;;;;;;1999.90;999.90;;;13.60;99.90;;;;;;5026596;28;20072;-70
2023/07/14 04:43:38;;;;;;;1999.90;999.90;;;13.60;99.90;;;;;;5028891;28;20087;-69
2023/07/14 04:46:03;;;;;;;1999.90;999.90;;;13.70;99.90;;;;;;5043381;28;20095;-69
2023/07/14 04:48:29;;;;;;;1999.90;999.90;;;13.80;99.90;;;;;;5044598;28;20045;-69
2023/07/14 04:50:54;;;;;;;1999.90;999.90;;;13.80;99.90;;;;;;5048139;28;20033;-69
2023/07/14 04:53:20;;;;;;;1999.90;999.90;;;13.80;99.90;;;;;;5048687;28;20040;-69
2023/07/14 04:55:47;;;;;;;1999.90;999.90;;;13.90;99.90;;;;;;5045833;28;20047;-69
2023/07/14 04:58:15;;;;;;;1999.90;999.90;;;13.90;99.90;;;;;;5029840;28;20401;-69
2023/07/14 05:00:42;;;;;;;1999.90;999.90;;;14.00;99.90;;;;;;5048552;28;20045;-69
2023/07/14 05:03:09;;;;;;;1999.90;999.90;;;14.10;99.90;;;;;;5042207;28;20042;-69
2023/07/14 05:05:34;;;;;;;1999.90;999.90;;;14.10;99.90;;;;;;5054837;28;20071;-69
2023/07/14 05:08:03;;;;;;;1999.90;999.90;;;14.20;99.90;;;;;;5045348;28;20408;-69
2023/07/14 05:10:32;;;;;;;1999.90;999.90;;;14.30;99.90;;;;;;5038265;28;20481;-69
2023/07/14 05:12:58;;;;;;;1999.90;999.90;;;14.40;99.90;;;;;;5031767;28;20502;-69
2023/07/14 05:15:25;;;;;;;1999.90;999.90;;;14.50;99.90;;;;;;5040947;28;20075;-70
2023/07/14 05:17:51;;;;;;;1999.90;999.90;;;14.60;99.90;;;;;;5041489;28;20080;-69
2023/07/14 05:20:18;;;;;;;1999.90;999.90;;;14.70;99.90;;;;;;5042444;28;20052;-69
2023/07/14 05:22:47;;;;;;;1999.90;999.90;;;14.80;99.90;;;;;;5055581;28;20037;-69
2023/07/14 05:25:14;;;;;;;1999.90;999.90;;;14.90;99.90;;;;;;5042885;28;20081;-69
2023/07/14 05:27:41;;;;;;;1999.90;999.90;;;15.00;99.90;;;;;;5061019;28;20079;-69
2023/07/14 05:30:09;;;;;;;1999.90;999.90;;;15.10;99.90;;;;;;5039075;28;20468;-69
2023/07/14 05:32:35;;;;;;;1999.90;999.90;;;15.20;99.90;;;;;;5041029;28;20401;-70
2023/07/14 05:35:00;;;;;;;1999.90;999.90;;;15.30;99.90;;;;;;5055294;28;20036;-69
2023/07/14 05:37:26;;;;;;;1999.90;999.90;;;15.50;99.90;;;;;;5044751;28;20043;-70
2023/07/14 05:39:52;;;;;;;1999.90;999.90;;;15.50;99.90;;;;;;5018698;28;20048;-69
2023/07/14 05:42:17;;;;;;;1999.90;999.90;;;15.70;99.90;;;;;;5050948;28;20477;-70
2023/07/14 05:44:43;;;;;;;1999.90;999.90;;;15.80;99.90;;;;;;5043880;28;20037;-69
2023/07/14 05:47:09;;;;;;;1999.90;999.90;;;15.90;99.90;;;;;;5044552;28;20477;-69
2023/07/14 05:49:36;;;;;;;1999.90;999.90;;;16.00;99.90;;;;;;5035611;28;20040;-69
2023/07/14 05:52:02;;;;;;;1999.90;999.90;;;16.10;99.90;;;;;;5034666;28;20512;-69
2023/07/14 05:54:28;;;;;;;1999.90;999.90;;;16.20;99.90;;;;;;5042787;28;20042;-69
2023/07/14 05:56:55;;;;;;;1999.90;999.90;;;16.30;99.90;;;;;;5022123;28;20041;-70
2023/07/14 05:59:21;;;;;;;1999.90;999.90;;;16.40;99.90;;;;;;5024208;28;20121;-69
2023/07/14 06:01:47;;;;;;;1999.90;999.90;;;16.60;99.90;;;;;;5046511;28;20134;-69
2023/07/14 06:04:12;;;;;;;1999.90;999.90;;;16.70;99.90;;;;;;5031322;28;20529;-69
2023/07/14 06:06:38;;;;;;;1999.90;999.90;;;16.70;99.90;;;;;;5041689;28;20034;-69
2023/07/14 06:09:05;;;;;;;1999.90;999.90;;;16.80;99.90;;;;;;5047253;28;20114;-70
2023/07/14 06:11:31;;;;;;;1999.90;999.90;;;16.90;99.90;;;;;;5041288;28;20047;-70
2023/07/14 06:13:57;;;;;;;1999.90;999.90;;;17.10;99.90;;;;;;5046751;28;20051;-70
2023/07/14 06:16:23;;;;;;;1999.90;999.90;;;17.40;99.90;;;;;;5034371;28;20045;-70
2023/07/14 06:18:50;;;;;;;1999.90;999.90;;;17.80;99.90;;;;;;5026864;28;20492;-70
2023/07/14 06:21:15;;;;;;;1999.90;999.90;;;18.30;99.90;;;;;;5029774;28;20520;-70
2023/07/14 06:23:41;;;;;;;1999.90;999.90;;;18.40;99.90;;;;;;5027765;28;20084;-69
2023/07/14 06:26:07;;;;;;;1999.90;999.90;;;18.30;99.90;;;;;;5041930;28;20614;-70
2023/07/14 06:28:33;;;;;;;1999.90;999.90;;;18.30;99.90;;;;;;5047242;28;20127;-70
2023/07/14 06:31:04;;;;;;;1999.90;999.90;;;18.40;99.90;;;;;;5023727;28;20511;-70
2023/07/14 06:33:30;;;;;;;1999.90;999.90;;;18.50;99.90;;;;;;5043690;28;20475;-70
2023/07/14 06:35:57;;;;;;;1999.90;999.90;;;18.80;99.90;;;;;;5031928;28;21342;-70
2023/07/14 06:38:23;;;;;;;1999.90;999.90;;;19.00;99.90;;;;;;5034658;28;20048;-70
2023/07/14 06:41:03;;;;;;;1999.90;999.90;;;19.80;99.90;;;;;;5044047;28;20098;-70
2023/07/14 06:43:31;;;;;;;1999.90;999.90;;;20.70;99.90;;;;;;5040272;28;20047;-70
2023/07/14 06:45:57;;;;;;;1999.90;999.90;;;21.60;99.90;;;;;;5040154;28;20053;-70
2023/07/14 06:48:24;;;;;;;727.33;681.65;;;22.20;99.90;;;;;;5046511;28;20052;-70
2023/07/14 06:50:50;;;;;;;727.22;681.67;;;22.90;99.90;;;;;;5039689;28;20049;-70
2023/07/14 06:53:17;;;;;;;701.80;658.55;;;23.20;99.90;;;;;;5044364;28;20041;-71
2023/07/14 06:55:43;;;;;;;661.55;621.65;;;23.40;99.90;;;;;;5036208;28;20041;-70
2023/07/14 06:58:09;;;;;;;545.33;515.63;;;23.50;99.90;;;;;;5042911;28;20097;-70
2023/07/14 07:00:36;;;;;;;436.27;414.42;;;23.60;99.90;;;;;;5053713;28;20083;-70
2023/07/14 07:03:03;;;;;;;357.00;339.98;;;23.80;99.90;;;;;;5042504;28;20045;-70
2023/07/14 07:05:30;;;;;;;457.77;434.38;;;23.90;99.90;;;;;;5022672;28;20099;-70
2023/07/14 07:07:55;;;;;;;386.05;367.23;;;24.00;99.90;;;;;;5042976;28;20481;-71
2023/07/14 07:10:21;;;;;;;307.63;293.60;;;24.30;99.90;;;;;;5039258;28;20075;-70
2023/07/14 07:12:47;;;;;;;327.65;312.15;;;24.70;99.90;;;;;;5042892;28;20132;-70
2023/07/14 07:15:13;;;;;;;230.13;220.05;;;24.90;99.90;;;;;;5046828;28;20486;-70
2023/07/14 07:17:41;;;;;;;213.48;203.90;;;25.10;99.90;;;;;;5044164;28;20045;-70
2023/07/14 07:20:08;;;;;;;151.93;144.85;;;25.30;99.90;;;;;;5031427;28;20057;-70
2023/07/14 07:22:35;;;;;;;176.00;168.13;;;25.20;99.90;;;;;;5031379;28;20037;-70
2023/07/14 07:25:00;;;;;;;87.95;83.70;;;25.10;99.90;;;;;;5044064;28;20076;-70
2023/07/14 07:27:26;;;;;;;95.72;91.28;;;25.10;99.90;;;;;;5044987;28;20080;-70
2023/07/14 07:29:52;;;;;;;62.45;59.33;;;25.00;99.90;;;;;;5045225;28;20447;-70
2023/07/14 07:32:18;;;;;;;134.80;128.63;;;25.00;99.90;;;;;;5044557;28;20041;-70
2023/07/14 07:34:44;;;;;;;118.38;113.20;;;25.20;99.90;;;;;;5016671;28;20081;-70
2023/07/14 07:37:12;;;;;;;156.98;150.05;;;25.60;99.90;;;;;;5041748;28;20056;-70
2023/07/14 07:39:38;;;;;;;98.13;93.50;;;25.70;99.90;;;;;;5032151;28;20037;-70
2023/07/14 07:42:05;;;;;;;116.90;111.40;;;25.80;99.90;;;;;;5038394;28;20520;-70
2023/07/14 07:44:32;;;;;;;35.92;33.83;;;25.70;99.90;;;;;;5040132;28;20045;-69
2023/07/14 07:46:58;;;;;;;51.72;48.72;;;25.80;99.90;;;;;;5043059;28;20520;-70
2023/07/14 07:49:23;;;;;;;53.50;50.55;;;25.60;99.60;;;;;;5041583;28;20057;-70
2023/07/14 07:51:49;;;;;;;48.92;46.10;;;25.20;99.20;;;;;;5036971;28;20519;-70
2023/07/14 07:54:15;;;;;;;102.85;97.88;;;25.20;99.90;;;;;;5029117;28;20041;-70
2023/07/14 07:56:42;;;;;;;88.78;84.38;;;25.10;99.40;;;;;;5035174;28;20082;-69
2023/07/14 07:59:17;;;;;;;106.45;101.47;;;24.50;99.20;;;;;;5035574;28;20123;-70
2023/07/14 08:01:45;;;;;;;62.17;58.90;;;24.30;98.90;;;;;;5046088;28;20041;-70
2023/07/14 08:04:13;;;;;;;84.32;80.22;;;24.40;99.50;;;;;;5047415;28;20106;-70
2023/07/14 08:06:39;;;;;;;88.35;84.30;;;24.10;99.00;;;;;;5029433;28;20049;-69
2023/07/14 08:09:06;;;;;;;152.40;145.45;;;23.70;99.90;;;;;;5018251;28;20049;-70
2023/07/14 08:11:32;;;;;;;123.80;118.05;;;23.90;99.90;;;;;;5017585;28;20047;-70
2023/07/14 08:14:04;;;;;;;208.15;198.70;;;23.60;99.90;;;;;;5044899;28;20041;-69
2023/07/14 08:16:30;;;;;;;199.52;190.60;;;23.00;99.90;;;;;;5046544;28;20099;-70
2023/07/14 08:18:56;;;;;;;237.38;226.70;;;22.60;99.90;;;;;;5037109;28;20086;-69
2023/07/14 08:21:22;;;;;;;328.77;313.00;;;22.60;99.90;;;;;;5043058;28;20049;-69
2023/07/14 08:23:48;;;;;;;235.20;224.52;;;22.50;99.90;;;;;;5043175;28;20048;-70
2023/07/14 08:26:14;;;;;;;197.82;188.95;;;22.40;99.90;;;;;;5040943;28;20401;-69
2023/07/14 08:28:40;;;;;;;223.60;213.55;;;22.70;99.90;;;;;;5031641;28;20361;-70
2023/07/14 08:31:08;;;;;;;211.65;202.20;;;22.90;99.90;;;;;;5049115;28;20122;-69
2023/07/14 08:33:35;;;;;;;77.43;73.93;;;23.30;99.40;;;;;;5044953;28;20156;-70
2023/07/14 08:36:02;;;;;;;64.50;61.22;;;23.70;99.30;;;;;;5032063;28;20037;-70
2023/07/14 08:38:33;;;;;;;63.10;60.03;;;24.20;99.50;;;;;;5042041;28;20045;-71
2023/07/14 08:41:20;;;;;;;38.35;36.33;;;24.50;98.10;;;;;;5042902;28;20114;-68
2023/07/14 08:43:59;;;;;;;70.55;67.25;;;24.60;97.10;;;;;;5037194;28;20045;-69
2023/07/14 08:46:49;;;;;;;83.55;79.82;;;23.80;96.10;;;;;;5036112;28;20045;-69
2023/07/14 08:49:23;;;;;;;73.05;69.45;;;23.20;96.70;;;;;;5048356;28;20063;-69
2023/07/14 08:51:57;;;;;;;93.35;89.20;;;22.80;97.30;;;;;;5031151;28;20040;-68
2023/07/14 08:54:45;;;;;;;73.10;69.72;;;22.50;97.90;;;;;;5042359;28;20112;-71
2023/07/14 08:57:19;;;;;;;50.83;48.17;;;22.90;98.70;;;;;;5043807;28;20328;-72
2023/07/14 08:59:45;;;;;;;40.80;38.58;;;23.40;99.20;;;;;;5045756;28;20037;-71
2023/07/14 09:02:24;;;;;;;42.00;39.85;;;23.10;99.10;;;;;;5050364;28;20401;-71
2023/07/14 09:05:12;;;;;;;32.08;30.27;;;23.20;99.60;;;;;;5050918;28;20135;-71
2023/07/14 09:07:38;;;;;;;28.10;26.35;;;23.80;98.60;;;;;;5025028;28;20040;-71
2023/07/14 09:10:04;;;;;;;48.15;45.75;;;24.40;98.90;;;;;;5043033;28;20044;-70
2023/07/14 09:12:42;;;;;;;37.28;35.20;;;25.00;98.00;;;;;;5048952;28;20041;-69
2023/07/14 09:15:12;;;;;;;89.72;85.72;;;25.30;96.80;;;;;;5047658;28;20040;-69
2023/07/14 09:17:50;;;;;;;56.10;53.08;;;25.00;94.70;;;;;;5048081;28;20091;-68
2023/07/14 09:20:43;;;;;;;102.88;98.28;;;24.70;95.00;;;;;;5039898;28;20532;-68
2023/07/14 09:23:21;;;;;;;67.28;64.13;;;24.20;94.60;;;;;;5048762;28;20067;-68
2023/07/14 09:25:50;;;;;;;88.13;84.03;;;24.20;95.70;;;;;;5046344;28;20056;-69
2023/07/14 09:28:26;;;;;;;62.78;59.85;;;24.20;95.10;;;;;;5048705;28;20045;-68
2023/07/14 09:30:52;;;;;;;113.13;107.93;;;24.00;95.80;;;;;;5044452;28;20033;-68
2023/07/14 09:33:20;;;;;;;97.57;93.30;;;24.00;95.70;;;;;;5047327;28;20111;-69
2023/07/14 09:35:49;;;;;;;80.53;76.93;;;24.00;95.10;;;;;;5044838;28;20497;-73
2023/07/14 09:38:14;;;;;;;126.35;120.78;;;24.00;95.60;;;;;;5047884;28;20045;-69
2023/07/14 09:40:43;;;;;;;82.25;78.47;;;24.20;94.80;;;;;;5047475;28;20496;-68
2023/07/14 09:43:10;;;;;;;112.93;107.82;;;24.30;94.60;;;;;;5031721;28;20133;-70
2023/07/14 09:45:38;;;;;;;65.72;62.58;;;24.00;94.50;;;;;;5046842;28;20286;-69
2023/07/14 09:48:30;;;;;;;61.40;58.55;;;23.90;96.50;;;;;;5043579;28;20402;-69
2023/07/14 09:51:02;;;;;;;149.02;142.38;;;24.20;97.00;;;;;;5058583;28;20049;-69
2023/07/14 09:53:31;;;;;;;103.60;98.93;;;24.70;95.20;;;;;;5038612;28;20098;-69
2023/07/14 09:56:03;;;;;;;165.63;158.30;;;24.70;94.60;;;;;;5028607;28;20056;-71
2023/07/14 09:58:31;;;;;;;135.43;129.48;;;24.70;92.90;;;;;;5035130;28;20489;-69
2023/07/14 10:01:01;;;;;;;141.95;135.70;;;24.50;93.50;;;;;;5037475;28;20045;-69
2023/07/14 10:03:36;;;;;;;145.18;138.88;;;24.50;94.00;;;;;;5046512;28;20064;-69
2023/07/14 10:06:11;;;;;;;141.18;135.02;;;24.50;94.40;;;;;;5040995;28;20532;-69
2023/07/14 10:08:48;;;;;;;127.03;121.38;;;24.40;93.90;;;;;;5047280;28;20081;-69
2023/07/14 10:11:26;;;;;;;132.00;126.07;;;24.20;93.10;;;;;;5057990;28;20053;-69
2023/07/14 10:13:59;;;;;;;134.25;128.45;;;24.00;94.90;;;;;;5060584;28;20076;-69
2023/07/14 10:16:27;;;;;;;108.25;103.38;;;24.20;95.80;;;;;;5057122;28;20036;-70
2023/07/14 10:19:11;;;;;;;139.23;133.15;;;24.40;95.60;;;;;;5042337;28;20386;-69
2023/07/14 10:21:37;;;;;;;128.98;123.28;;;24.60;95.40;;;;;;5046371;28;20049;-69
2023/07/14 10:24:16;;;;;;;128.65;122.90;;;24.60;95.20;;;;;;5046400;28;20536;-69
2023/07/14 10:26:50;;;;;;;130.93;125.15;;;24.40;95.30;;;;;;5039382;28;20501;-69
2023/07/14 10:29:18;;;;;;;140.70;134.65;;;24.20;95.50;;;;;;5045076;28;20037;-70
2023/07/14 10:31:51;;;;;;;183.75;175.88;;;24.40;94.80;;;;;;5045276;28;20041;-69
2023/07/14 10:34:22;;;;;;;170.20;162.63;;;24.50;94.20;;;;;;5035058;28;20159;-69
2023/07/14 10:36:54;;;;;;;190.35;182.18;;;24.80;94.50;;;;;;5047251;28;20072;-69
2023/07/14 10:39:35;;;;;;;169.82;162.27;;;24.90;92.80;;;;;;5024336;28;20042;-69
2023/07/14 10:42:04;;;;;;;163.98;156.50;;;24.70;93.20;;;;;;5036712;28;20048;-69
2023/07/14 10:44:37;;;;;;;185.50;177.45;;;24.50;93.30;;;;;;5031055;28;20106;-69
2023/07/14 10:47:12;;;;;;;187.10;178.93;;;24.10;92.70;;;;;;5035502;28;20495;-68
2023/07/14 10:49:46;;;;;;;190.85;182.40;;;23.60;93.60;;;;;;5031720;28;20047;-69
2023/07/14 10:52:17;;;;;;;186.15;178.10;;;23.30;93.70;;;;;;5021487;28;20045;-68
2023/07/14 10:55:13;;;;;;;186.57;178.45;;;22.90;94.00;;;;;;5040689;28;20041;-68
2023/07/14 10:57:47;;;;;;;135.60;129.45;;;22.80;95.00;;;;;;5046953;28;20044;-68
2023/07/14 11:00:21;;;;;;;171.27;163.82;;;22.70;94.60;;;;;;5026520;28;20036;-69
2023/07/14 11:03:08;;;;;;;83.50;79.63;;;22.70;94.90;;;;;;5032281;28;20037;-69
2023/07/14 11:05:35;;;;;;;101.30;96.68;;;22.60;95.20;;;;;;5042852;28;20052;-69
2023/07/14 11:08:00;;;;;;;85.63;81.57;;;22.50;95.30;;;;;;5034649;28;20131;-69
2023/07/14 11:10:32;;;;;;;65.22;62.08;;;22.60;95.70;;;;;;5024880;28;20044;-69
2023/07/14 11:13:56;;;;;;;48.85;46.25;;;22.80;95.60;;;;;;5045494;28;20055;-69
2023/07/14 11:16:33;;;;;;;52.90;50.22;;;23.20;96.00;;;;;;4958095;28;20176;-69
2023/07/14 11:19:16;;;;;;;172.50;165.00;;;23.80;95.20;;;;;;4993022;28;20362;-69
2023/07/14 11:22:23;;;;;;;150.23;143.75;;;24.10;94.50;;;;;;4988142;28;20037;-68
2023/07/14 11:25:14;;;;;;;158.13;151.23;;;24.00;92.90;;;;;;4925341;28;20055;-68
2023/07/14 11:28:19;;;;;;;106.25;101.53;;;23.60;93.50;;;;;;4943926;28;20093;-68
2023/07/14 11:30:51;;;;;;;165.00;157.82;;;23.60;94.60;;;;;;4944904;28;20412;-68
2023/07/14 11:33:35;;;;;;;142.35;136.27;;;24.10;93.70;;;;;;4925064;28;20051;-69
2023/07/14 11:36:43;;;;;;;153.60;146.80;;;24.50;93.80;;;;;;4945559;28;20582;-69
2023/07/14 11:39:49;;;;;;;149.15;142.48;;;25.00;93.90;;;;;;4946391;28;20058;-69
2023/07/14 11:42:28;;;;;;;134.60;128.65;;;25.00;91.50;;;;;;4940625;28;20058;-68
2023/07/14 11:44:56;;;;;;;183.60;175.52;;;24.70;92.00;;;;;;4951341;28;20055;-69
2023/07/14 11:47:28;;;;;;;194.55;186.07;;;24.70;92.70;;;;;;4946471;28;20047;-69
2023/07/14 11:49:55;;;;;;;102.53;97.90;;;24.70;92.60;;;;;;4946718;28;20115;-68
2023/07/14 11:52:27;;;;;;;146.00;139.50;;;24.70;91.30;;;;;;5001960;28;20041;-69
2023/07/14 11:54:52;;;;;;;129.68;123.97;;;24.60;91.60;;;;;;5012570;28;20471;-69
2023/07/14 11:57:19;;;;;;;105.65;100.88;;;24.50;91.60;;;;;;5028297;28;20033;-69
2023/07/14 12:00:24;;;;;;;143.27;136.98;;;24.30;90.30;;;;;;5037310;28;20044;-69
2023/07/14 12:03:00;;;;;;;103.00;98.45;;;24.20;90.30;;;;;;5046066;28;20547;-69
2023/07/14 12:05:38;;;;;;;157.27;150.40;;;24.20;90.80;;;;;;5045220;28;20068;-69
2023/07/14 12:08:04;;;;;;;115.85;110.72;;;24.00;91.00;;;;;;5046106;28;20052;-69
2023/07/14 12:10:39;;;;;;;132.77;126.82;;;23.80;90.70;;;;;;5048670;28;20045;-70
2023/07/14 12:13:10;;;;;;;173.05;165.55;;;23.80;91.80;;;;;;5037918;28;20072;-68
2023/07/14 12:16:00;;;;;;;164.52;157.20;;;23.90;91.50;;;;;;5024845;28;20037;-69
2023/07/14 12:19:08;;;;;;;162.32;155.02;;;24.00;91.90;;;;;;5030822;28;20497;-70
2023/07/14 12:21:43;;;;;;;172.40;164.88;;;23.90;91.50;;;;;;4993634;28;20060;-69